Time;durP1;ratioP1;P1;durP2;ratioP2;P2;SDS_P1;SDS_P2;PMS_P1;PMS_P2;Temp;Humidity;BMP_temperature;BMP_pressure;BME280_temperature;BME280_humidity;BME280_pressure;Samples;Min_cycle;Max_cycle;Signal;HPM_P1;HPM_P2
2023/03/30 00:01:29;;;;;;;1.42;0.75;;;11.40;99.90;;;;;;5092206;28;20146;-75
2023/03/30 00:03:55;;;;;;;0.70;0.70;;;11.40;99.90;;;;;;5092264;28;20036;-74
2023/03/30 00:06:21;;;;;;;0.60;0.60;;;11.30;99.90;;;;;;5093483;28;20115;-75
2023/03/30 00:08:48;;;;;;;0.52;0.52;;;11.40;99.90;;;;;;5126126;28;20105;-75
2023/03/30 00:11:16;;;;;;;0.50;0.50;;;11.40;99.90;;;;;;5075066;28;20529;-76
2023/03/30 00:13:42;;;;;;;0.43;0.43;;;11.40;99.90;;;;;;5092175;28;20039;-75
2023/03/30 00:16:11;;;;;;;0.82;0.60;;;11.40;99.90;;;;;;5091814;28;20048;-75
2023/03/30 00:18:38;;;;;;;0.50;0.50;;;11.40;99.90;;;;;;5091849;28;20036;-75
2023/03/30 00:21:04;;;;;;;0.57;0.57;;;11.40;99.90;;;;;;5092058;28;20136;-75
2023/03/30 00:23:31;;;;;;;0.40;0.40;;;11.40;99.90;;;;;;5092095;28;20042;-74
2023/03/30 00:25:56;;;;;;;0.98;0.55;;;11.40;99.90;;;;;;5074778;28;20127;-75
2023/03/30 00:28:23;;;;;;;0.50;0.50;;;11.40;99.90;;;;;;5093257;28;20115;-75
2023/03/30 00:30:51;;;;;;;0.50;0.50;;;11.40;99.90;;;;;;5093238;28;20055;-75
2023/03/30 00:33:17;;;;;;;0.43;0.43;;;11.50;99.90;;;;;;5093176;28;20115;-75
2023/03/30 00:35:42;;;;;;;0.60;0.60;;;11.50;99.90;;;;;;5091974;28;20547;-75
2023/03/30 00:38:08;;;;;;;0.50;0.50;;;11.50;99.90;;;;;;5091420;28;20051;-75
2023/03/30 00:40:34;;;;;;;0.50;0.50;;;11.60;99.90;;;;;;5091985;28;20119;-75
2023/03/30 00:43:04;;;;;;;0.40;0.40;;;11.50;99.90;;;;;;5091623;28;20147;-75
2023/03/30 00:45:31;;;;;;;0.43;0.43;;;11.50;99.90;;;;;;5093161;28;20036;-75
2023/03/30 00:48:03;;;;;;;0.50;0.50;;;11.50;99.90;;;;;;5091492;28;20048;-75
2023/03/30 00:50:43;;;;;;;0.63;0.63;;;11.50;99.90;;;;;;5091605;28;20048;-75
2023/03/30 00:53:16;;;;;;;0.50;0.50;;;11.50;99.90;;;;;;5092853;28;20507;-75
2023/03/30 00:55:45;;;;;;;0.40;0.40;;;11.40;99.90;;;;;;5092762;28;20044;-75
2023/03/30 00:58:14;;;;;;;0.68;0.68;;;11.50;99.90;;;;;;5092846;28;20040;-75
2023/03/30 01:00:42;;;;;;;0.50;0.50;;;11.50;99.90;;;;;;5091627;28;20123;-75
2023/03/30 01:03:26;;;;;;;0.40;0.40;;;11.40;99.90;;;;;;5094870;28;20051;-75
2023/03/30 01:05:55;;;;;;;0.40;0.40;;;11.50;99.90;;;;;;5095870;28;20427;-75
2023/03/30 01:08:22;;;;;;;0.53;0.53;;;11.50;99.90;;;;;;5095201;28;20501;-75
2023/03/30 01:10:49;;;;;;;0.47;0.47;;;11.50;99.90;;;;;;5096490;28;20060;-75
2023/03/30 01:13:16;;;;;;;0.43;0.40;;;11.50;99.90;;;;;;5096435;28;20076;-75
2023/03/30 01:16:14;;;;;;;0.40;0.40;;;11.50;99.90;;;;;;5094946;28;20467;-75
2023/03/30 01:18:47;;;;;;;0.40;0.40;;;11.60;99.90;;;;;;5096020;28;20044;-75
2023/03/30 01:21:33;;;;;;;0.50;0.50;;;11.60;99.90;;;;;;5094793;28;20047;-75
2023/03/30 01:24:09;;;;;;;0.40;0.40;;;11.60;99.90;;;;;;5095685;28;20055;-75
2023/03/30 01:26:45;;;;;;;0.45;0.45;;;11.50;99.90;;;;;;5094701;28;20048;-75
2023/03/30 01:29:14;;;;;;;0.50;0.50;;;11.50;99.90;;;;;;5094917;28;20039;-75
2023/03/30 01:32:05;;;;;;;0.43;0.43;;;11.60;99.90;;;;;;5096070;28;20433;-75
2023/03/30 01:34:47;;;;;;;0.52;0.40;;;11.60;99.90;;;;;;5095741;28;20471;-75
2023/03/30 01:37:21;;;;;;;0.47;0.47;;;11.60;99.90;;;;;;5094167;28;20056;-75
2023/03/30 01:40:20;;;;;;;0.40;0.40;;;11.70;99.90;;;;;;5096417;28;20051;-75
2023/03/30 01:43:02;;;;;;;0.50;0.50;;;11.80;99.90;;;;;;5095834;28;20115;-75
2023/03/30 01:45:36;;;;;;;0.40;0.40;;;11.90;99.90;;;;;;5094296;28;20048;-75
2023/03/30 01:48:13;;;;;;;0.52;0.52;;;11.90;99.90;;;;;;5095533;28;20044;-75
2023/03/30 01:50:46;;;;;;;0.40;0.38;;;11.90;99.90;;;;;;5095452;28;20428;-76
2023/03/30 01:53:24;;;;;;;0.60;0.60;;;11.90;99.90;;;;;;5128536;27;20079;-76
2023/03/30 01:56:06;;;;;;;0.40;0.40;;;11.90;99.90;;;;;;5094161;28;20047;-75
2023/03/30 01:58:42;;;;;;;0.63;0.52;;;11.90;99.90;;;;;;5094060;28;20108;-76
2023/03/30 02:01:13;;;;;;;0.50;0.50;;;11.90;99.90;;;;;;5094140;28;20483;-75
2023/03/30 02:03:41;;;;;;;0.60;0.60;;;11.90;99.90;;;;;;5094181;28;20109;-75
2023/03/30 02:06:14;;;;;;;0.50;0.50;;;11.90;99.90;;;;;;5095364;28;20105;-74
2023/03/30 02:08:41;;;;;;;0.40;0.40;;;11.90;99.90;;;;;;5094071;28;20495;-75
2023/03/30 02:11:07;;;;;;;0.50;0.50;;;11.90;99.90;;;;;;5095257;28;20044;-75
2023/03/30 02:13:36;;;;;;;0.43;0.43;;;11.90;99.90;;;;;;5093562;28;20044;-75
2023/03/30 02:16:16;;;;;;;0.47;0.40;;;12.00;99.90;;;;;;5076792;28;20044;-75
2023/03/30 02:18:42;;;;;;;0.52;0.52;;;12.00;99.90;;;;;;5095044;28;20051;-75
2023/03/30 02:21:08;;;;;;;0.50;0.50;;;11.90;99.90;;;;;;5095063;28;20032;-75
2023/03/30 02:23:38;;;;;;;0.40;0.40;;;12.00;99.90;;;;;;5095032;28;20046;-75
2023/03/30 02:26:06;;;;;;;0.70;0.70;;;11.90;99.90;;;;;;5094938;28;20066;-75
2023/03/30 02:28:32;;;;;;;0.40;0.40;;;11.90;99.90;;;;;;5076843;28;20097;-75
2023/03/30 02:30:58;;;;;;;0.40;0.40;;;12.00;99.90;;;;;;5093322;28;20052;-75
2023/03/30 02:33:32;;;;;;;0.68;0.50;;;11.90;99.90;;;;;;5094797;28;20043;-75
2023/03/30 02:36:19;;;;;;;0.30;0.30;;;11.80;99.90;;;;;;5093311;28;20105;-75
2023/03/30 02:38:54;;;;;;;0.40;0.40;;;11.80;99.90;;;;;;5094431;28;20048;-75
2023/03/30 02:41:38;;;;;;;0.40;0.40;;;11.80;99.90;;;;;;5094721;28;20036;-76
2023/03/30 02:44:27;;;;;;;0.40;0.40;;;11.90;99.90;;;;;;5094629;28;20044;-75
2023/03/30 02:47:31;;;;;;;0.50;0.50;;;11.90;99.90;;;;;;5093186;28;20040;-75
2023/03/30 02:50:16;;;;;;;0.40;0.40;;;11.80;99.90;;;;;;5038784;28;20491;-76
2023/03/30 02:52:57;;;;;;;0.60;0.43;;;12.00;99.90;;;;;;5055769;28;20074;-76
2023/03/30 02:55:44;;;;;;;0.40;0.40;;;12.00;99.90;;;;;;5055255;28;20581;-76
2023/03/30 02:58:29;;;;;;;0.40;0.40;;;12.00;99.90;;;;;;5055020;28;20072;-75
2023/03/30 03:01:13;;;;;;;0.30;0.30;;;12.00;99.90;;;;;;5054931;28;20044;-75
2023/03/30 03:03:46;;;;;;;0.40;0.40;;;12.00;99.90;;;;;;5054944;28;20048;-75
2023/03/30 03:06:13;;;;;;;0.40;0.40;;;12.00;99.90;;;;;;5055229;28;20091;-75
2023/03/30 03:08:41;;;;;;;0.50;0.50;;;12.00;99.90;;;;;;5055078;28;20052;-76
2023/03/30 03:11:08;;;;;;;0.43;0.43;;;12.00;99.90;;;;;;5054823;28;20083;-76
2023/03/30 03:13:36;;;;;;;0.32;0.32;;;12.00;99.90;;;;;;5055492;28;20061;-75
2023/03/30 03:16:06;;;;;;;0.52;0.52;;;12.10;99.90;;;;;;5054726;28;20044;-76
2023/03/30 03:18:33;;;;;;;0.40;0.40;;;12.10;99.90;;;;;;5054685;28;20120;-75
2023/03/30 03:21:00;;;;;;;0.40;0.40;;;12.00;99.90;;;;;;5060466;28;20582;-75
2023/03/30 03:23:25;;;;;;;0.40;0.40;;;12.00;99.90;;;;;;5092624;28;20059;-75
2023/03/30 03:25:51;;;;;;;0.32;0.32;;;12.00;99.90;;;;;;5092068;28;20480;-75
2023/03/30 03:28:17;;;;;;;0.45;0.45;;;12.00;99.90;;;;;;5093640;28;20040;-75
2023/03/30 03:30:42;;;;;;;0.40;0.40;;;12.00;99.90;;;;;;5092352;28;20044;-75
2023/03/30 03:33:08;;;;;;;0.30;0.30;;;11.90;99.90;;;;;;5092662;28;20040;-75
2023/03/30 03:35:38;;;;;;;0.40;0.40;;;11.90;99.90;;;;;;5075442;28;20122;-75
2023/03/30 03:38:04;;;;;;;0.57;0.50;;;12.00;99.90;;;;;;5092187;28;20382;-75
2023/03/30 03:40:29;;;;;;;0.40;0.40;;;12.00;99.90;;;;;;5093739;28;20387;-75
2023/03/30 03:42:55;;;;;;;0.50;0.50;;;11.90;99.90;;;;;;5093750;28;20036;-76
2023/03/30 03:45:20;;;;;;;0.30;0.30;;;11.80;99.90;;;;;;5093378;28;20395;-75
2023/03/30 03:47:49;;;;;;;0.40;0.40;;;11.90;99.90;;;;;;5092121;28;20067;-77
2023/03/30 03:50:14;;;;;;;0.60;0.60;;;11.90;99.90;;;;;;5092182;28;20050;-76
2023/03/30 03:52:40;;;;;;;0.40;0.40;;;11.90;99.90;;;;;;5093710;28;20040;-76
2023/03/30 03:55:07;;;;;;;0.50;0.50;;;11.90;99.90;;;;;;5075334;28;20044;-76
2023/03/30 03:57:32;;;;;;;0.40;0.40;;;11.90;99.90;;;;;;5093224;28;20543;-76
2023/03/30 03:59:58;;;;;;;0.50;0.50;;;11.90;99.90;;;;;;5093243;28;20115;-76
2023/03/30 04:02:25;;;;;;;0.50;0.50;;;12.00;99.90;;;;;;5075266;28;20039;-76
2023/03/30 04:04:52;;;;;;;0.50;0.50;;;12.00;99.90;;;;;;5093625;28;20037;-76
2023/03/30 04:07:18;;;;;;;0.98;0.45;;;12.00;99.90;;;;;;5126317;28;20036;-76
2023/03/30 04:09:43;;;;;;;0.50;0.40;;;12.00;99.90;;;;;;5092267;28;20047;-76
2023/03/30 04:12:09;;;;;;;0.40;0.40;;;12.10;99.90;;;;;;5093495;28;20480;-76
2023/03/30 04:14:35;;;;;;;0.40;0.40;;;12.10;99.90;;;;;;5075127;28;20093;-76
2023/03/30 04:17:00;;;;;;;0.40;0.40;;;12.20;99.90;;;;;;5093489;28;20044;-77
2023/03/30 04:19:26;;;;;;;0.60;0.60;;;12.30;99.90;;;;;;5093323;28;20365;-77
2023/03/30 04:21:54;;;;;;;0.60;0.60;;;12.40;99.90;;;;;;5093047;28;20079;-76
2023/03/30 04:24:21;;;;;;;0.70;0.70;;;12.50;99.90;;;;;;5091863;28;20052;-76
2023/03/30 04:26:47;;;;;;;0.43;0.43;;;12.70;99.90;;;;;;5093290;28;20175;-76
2023/03/30 04:29:19;;;;;;;0.50;0.50;;;12.80;99.90;;;;;;5093246;28;20117;-76
2023/03/30 04:31:45;;;;;;;0.43;0.43;;;12.70;99.90;;;;;;5092124;28;20036;-76
2023/03/30 04:34:15;;;;;;;0.50;0.47;;;12.80;99.90;;;;;;5075132;28;20048;-76
2023/03/30 04:36:42;;;;;;;0.50;0.50;;;12.80;99.90;;;;;;5093125;28;20048;-76
2023/03/30 04:39:10;;;;;;;0.50;0.50;;;12.80;99.90;;;;;;5095503;28;20523;-76
2023/03/30 04:41:36;;;;;;;0.50;0.50;;;12.70;99.90;;;;;;5097097;28;20059;-76
2023/03/30 04:44:08;;;;;;;0.50;0.50;;;12.70;99.90;;;;;;5078526;28;20085;-76
2023/03/30 04:46:35;;;;;;;0.43;0.40;;;12.70;99.90;;;;;;5095399;28;20040;-76
2023/03/30 04:49:01;;;;;;;0.50;0.50;;;12.70;99.90;;;;;;5095311;28;20091;-76
2023/03/30 04:51:27;;;;;;;0.45;0.45;;;12.70;99.90;;;;;;5078649;28;20127;-76
2023/03/30 04:53:53;;;;;;;0.40;0.40;;;12.70;99.90;;;;;;5129586;27;20036;-77
2023/03/30 04:56:19;;;;;;;0.40;0.40;;;12.50;99.90;;;;;;5129356;27;20044;-76
2023/03/30 04:58:45;;;;;;;0.50;0.50;;;12.60;99.90;;;;;;5095027;28;20077;-76
2023/03/30 05:01:10;;;;;;;0.50;0.50;;;12.40;99.90;;;;;;5096656;28;20404;-76
2023/03/30 05:03:36;;;;;;;0.50;0.50;;;12.40;99.90;;;;;;5096562;28;20173;-76
2023/03/30 05:06:02;;;;;;;0.50;0.50;;;12.30;99.90;;;;;;5094998;28;20040;-76
2023/03/30 05:08:28;;;;;;;0.50;0.50;;;12.20;99.90;;;;;;5078005;28;20048;-76
2023/03/30 05:10:54;;;;;;;0.50;0.50;;;12.10;99.90;;;;;;5128997;27;20050;-77
2023/03/30 05:13:19;;;;;;;0.45;0.45;;;12.10;99.90;;;;;;5094862;28;20403;-76
2023/03/30 05:15:52;;;;;;;0.77;0.70;;;12.10;99.90;;;;;;5096451;28;20111;-76
2023/03/30 05:18:18;;;;;;;0.50;0.50;;;12.00;99.90;;;;;;5094799;28;20472;-76
2023/03/30 05:20:43;;;;;;;0.50;0.50;;;12.00;99.90;;;;;;5096317;28;20040;-76
2023/03/30 05:23:09;;;;;;;0.40;0.40;;;12.00;99.90;;;;;;5094696;28;20067;-76
2023/03/30 05:25:34;;;;;;;0.60;0.60;;;12.00;99.90;;;;;;5096179;28;20051;-76
2023/03/30 05:28:01;;;;;;;0.60;0.50;;;11.90;99.90;;;;;;5077685;28;20185;-77
2023/03/30 05:30:26;;;;;;;0.43;0.43;;;12.00;99.90;;;;;;5096080;28;20054;-76
2023/03/30 05:32:53;;;;;;;0.50;0.50;;;11.90;99.90;;;;;;5094450;28;20047;-73
2023/03/30 05:35:18;;;;;;;0.50;0.50;;;11.90;99.90;;;;;;5096117;28;20451;-76
2023/03/30 05:37:44;;;;;;;0.50;0.50;;;11.90;99.90;;;;;;5095529;28;20088;-76
2023/03/30 05:40:10;;;;;;;0.40;0.40;;;11.90;99.90;;;;;;5094754;28;20075;-77
2023/03/30 05:42:36;;;;;;;0.50;0.50;;;11.90;99.90;;;;;;5094409;28;20123;-76
2023/03/30 05:45:03;;;;;;;0.45;0.45;;;11.80;99.90;;;;;;5128406;27;20050;-77
2023/03/30 05:47:28;;;;;;;0.50;0.50;;;11.90;99.90;;;;;;5094092;28;20039;-77
2023/03/30 05:49:54;;;;;;;0.50;0.50;;;11.80;99.90;;;;;;5128463;27;20392;-77
2023/03/30 05:52:20;;;;;;;0.65;0.50;;;11.80;99.90;;;;;;5077374;28;20119;-76
2023/03/30 05:54:46;;;;;;;0.98;0.60;;;11.80;99.90;;;;;;5094280;28;20054;-78
2023/03/30 05:57:11;;;;;;;0.40;0.40;;;11.90;99.90;;;;;;5095657;28;20032;-78
2023/03/30 05:59:37;;;;;;;0.50;0.50;;;11.90;99.90;;;;;;5095259;28;20109;-78
2023/03/30 06:02:05;;;;;;;0.40;0.40;;;11.90;99.90;;;;;;5094235;28;20044;-76
2023/03/30 06:04:31;;;;;;;0.40;0.40;;;12.00;99.90;;;;;;5095544;28;20032;-76
2023/03/30 06:06:57;;;;;;;0.40;0.40;;;12.10;99.90;;;;;;5077115;28;20479;-75
2023/03/30 06:09:24;;;;;;;0.50;0.50;;;12.10;99.90;;;;;;5128018;27;20044;-77
2023/03/30 06:11:50;;;;;;;0.43;0.43;;;12.10;99.90;;;;;;5093912;28;20051;-75
2023/03/30 06:14:16;;;;;;;0.50;0.50;;;12.20;99.90;;;;;;5128013;27;20105;-75
2023/03/30 06:16:42;;;;;;;0.68;0.68;;;12.20;99.90;;;;;;5095214;28;20032;-75
2023/03/30 06:19:07;;;;;;;0.40;0.40;;;12.30;99.90;;;;;;5076745;28;20048;-75
2023/03/30 06:21:33;;;;;;;0.50;0.50;;;12.20;99.90;;;;;;5076713;28;20089;-76
2023/03/30 06:23:59;;;;;;;0.60;0.60;;;12.20;99.90;;;;;;5093555;28;20044;-76
2023/03/30 06:26:24;;;;;;;0.50;0.50;;;12.20;99.90;;;;;;5127891;27;20043;-74
2023/03/30 06:28:50;;;;;;;0.57;0.57;;;12.10;99.90;;;;;;5127786;27;20460;-74
2023/03/30 06:31:16;;;;;;;0.43;0.43;;;12.20;99.90;;;;;;5093328;28;20555;-76
2023/03/30 06:33:42;;;;;;;0.60;0.52;;;12.10;99.90;;;;;;5076474;28;20119;-74
2023/03/30 06:36:15;;;;;;;0.40;0.40;;;12.20;99.90;;;;;;5094806;28;20068;-73
2023/03/30 06:38:44;;;;;;;0.55;0.55;;;12.10;99.90;;;;;;5094354;28;20085;-75
2023/03/30 06:41:11;;;;;;;0.50;0.50;;;12.20;99.90;;;;;;5094865;28;20040;-74
2023/03/30 06:43:37;;;;;;;0.50;0.50;;;12.10;99.90;;;;;;5093240;28;20499;-74
2023/03/30 06:46:04;;;;;;;0.45;0.45;;;12.10;99.90;;;;;;5093503;28;20035;-74
2023/03/30 06:48:30;;;;;;;0.50;0.50;;;12.10;99.90;;;;;;5093099;28;20079;-74
2023/03/30 06:50:56;;;;;;;0.55;0.47;;;12.00;99.90;;;;;;5093412;28;20040;-74
2023/03/30 06:53:23;;;;;;;0.60;0.60;;;12.00;99.90;;;;;;5094577;28;20078;-73
2023/03/30 06:55:53;;;;;;;0.60;0.60;;;12.00;99.90;;;;;;5093109;28;20496;-78
2023/03/30 06:58:19;;;;;;;0.75;0.52;;;12.10;99.90;;;;;;5092549;28;20051;-74
2023/03/30 07:00:45;;;;;;;0.40;0.40;;;12.10;99.90;;;;;;5093721;28;20032;-80
2023/03/30 07:03:11;;;;;;;0.52;0.52;;;12.10;99.90;;;;;;5093198;28;20107;-80
2023/03/30 07:05:37;;;;;;;0.60;0.60;;;12.10;99.90;;;;;;5092702;28;20389;-81
2023/03/30 07:08:04;;;;;;;0.70;0.70;;;12.20;99.90;;;;;;5094295;28;20044;-80
2023/03/30 07:10:30;;;;;;;0.73;0.73;;;12.30;99.90;;;;;;5092711;28;20058;-80
2023/03/30 07:12:56;;;;;;;0.90;0.63;;;12.50;99.90;;;;;;5092696;28;20043;-80
2023/03/30 07:15:23;;;;;;;0.60;0.60;;;12.60;99.90;;;;;;5075705;28;20062;-80
2023/03/30 07:17:49;;;;;;;0.60;0.60;;;12.80;99.90;;;;;;5126612;27;20089;-79
2023/03/30 07:20:14;;;;;;;0.70;0.70;;;12.80;99.90;;;;;;5092769;28;20391;-80
2023/03/30 07:22:41;;;;;;;0.60;0.60;;;12.90;99.90;;;;;;5092961;28;20525;-80
2023/03/30 07:25:08;;;;;;;0.70;0.70;;;13.00;99.90;;;;;;5092867;28;20040;-78
2023/03/30 07:27:35;;;;;;;0.55;0.55;;;12.90;99.90;;;;;;5093423;28;20368;-78
2023/03/30 07:30:01;;;;;;;0.70;0.70;;;12.90;99.90;;;;;;5075468;28;20036;-78
2023/03/30 07:32:26;;;;;;;0.55;0.55;;;12.90;99.90;;;;;;5093911;28;20039;-78
2023/03/30 07:34:52;;;;;;;0.60;0.60;;;12.80;99.90;;;;;;5075482;28;20057;-78
2023/03/30 07:37:17;;;;;;;0.68;0.68;;;12.70;99.90;;;;;;5075064;28;20112;-78
2023/03/30 07:39:43;;;;;;;0.70;0.70;;;12.60;99.90;;;;;;5092553;28;20056;-79
2023/03/30 07:42:09;;;;;;;0.75;0.75;;;12.60;99.90;;;;;;5092462;28;20055;-79
2023/03/30 07:44:35;;;;;;;0.80;0.80;;;12.70;99.90;;;;;;5126308;27;20487;-79
2023/03/30 07:47:03;;;;;;;0.70;0.70;;;12.70;99.90;;;;;;5092177;28;20118;-78
2023/03/30 07:49:28;;;;;;;0.88;0.82;;;12.70;99.90;;;;;;5093662;28;20050;-79
2023/03/30 07:51:54;;;;;;;0.70;0.70;;;12.70;99.90;;;;;;5092413;28;20031;-79
2023/03/30 07:54:20;;;;;;;0.90;0.90;;;12.70;99.90;;;;;;5093640;28;20043;-79
2023/03/30 07:56:51;;;;;;;0.77;0.77;;;12.80;99.90;;;;;;5093335;28;20068;-79
2023/03/30 07:59:21;;;;;;;0.70;0.70;;;12.70;99.90;;;;;;5092880;28;20032;-79
2023/03/30 08:01:49;;;;;;;;;;;12.70;99.90;;;;;;5093044;28;20040;-77
2023/03/30 08:04:15;;;;;;;0.70;0.70;;;12.60;99.90;;;;;;5075074;28;19920;-75
2023/03/30 08:06:41;;;;;;;1.05;0.95;;;12.70;99.90;;;;;;5092047;28;20040;-78
2023/03/30 08:09:07;;;;;;;0.80;0.80;;;12.70;99.90;;;;;;5075113;28;20123;-77
2023/03/30 08:11:34;;;;;;;0.80;0.80;;;12.60;99.90;;;;;;5094924;28;20040;-77
2023/03/30 08:14:01;;;;;;;0.93;0.90;;;12.60;99.90;;;;;;5079078;28;20123;-78
2023/03/30 08:16:27;;;;;;;1.02;0.80;;;12.60;99.90;;;;;;5095988;28;20051;-78
2023/03/30 08:18:53;;;;;;;1.10;1.00;;;12.60;99.90;;;;;;5096370;28;20400;-80
2023/03/30 08:21:24;;;;;;;0.80;0.80;;;12.60;99.90;;;;;;5096714;28;20111;-84
2023/03/30 08:23:51;;;;;;;0.82;0.82;;;12.60;99.90;;;;;;5096456;28;20040;-78
2023/03/30 08:26:16;;;;;;;0.70;0.70;;;12.60;99.90;;;;;;5079362;28;20032;-86
2023/03/30 08:28:45;;;;;;;0.88;0.88;;;12.60;99.90;;;;;;5079048;28;20173;-87
2023/03/30 08:31:10;;;;;;;0.98;0.90;;;12.60;99.90;;;;;;5096735;28;20039;-85
2023/03/30 08:33:36;;;;;;;1.00;0.90;;;12.60;99.90;;;;;;5096584;28;20070;-86
2023/03/30 08:36:02;;;;;;;0.90;0.90;;;12.60;99.90;;;;;;5097272;28;20039;-83
2023/03/30 08:38:28;;;;;;;0.85;0.70;;;12.60;99.90;;;;;;5095740;28;20476;-86
2023/03/30 08:40:54;;;;;;;0.80;0.80;;;12.50;99.90;;;;;;5097377;28;20123;-86
2023/03/30 08:43:22;;;;;;;1.10;1.00;;;12.40;99.90;;;;;;5078903;28;20032;-86
2023/03/30 08:45:50;;;;;;;1.00;0.88;;;12.40;99.90;;;;;;5097757;28;20127;-87
2023/03/30 08:48:30;;;;;;;0.80;0.80;;;12.40;99.90;;;;;;5096701;28;20065;-86
2023/03/30 08:50:59;;;;;;;0.93;0.93;;;12.30;99.90;;;;;;5079273;28;20040;-87
2023/03/30 08:53:28;;;;;;;1.08;1.00;;;12.40;99.90;;;;;;5078848;28;20032;-86
2023/03/30 08:56:12;;;;;;;1.10;1.00;;;12.40;99.90;;;;;;5095933;28;20165;-86
2023/03/30 08:59:01;;;;;;;1.10;1.00;;;12.50;99.90;;;;;;5095547;28;20043;-86
2023/03/30 09:01:54;;;;;;;0.90;0.90;;;12.40;99.90;;;;;;5078924;28;20126;-86
2023/03/30 09:04:45;;;;;;;1.20;1.10;;;12.30;99.90;;;;;;5095496;28;20032;-86
2023/03/30 09:07:18;;;;;;;1.27;1.10;;;12.20;99.90;;;;;;5097041;28;20051;-86
2023/03/30 09:09:47;;;;;;;1.13;1.10;;;12.10;99.90;;;;;;5096589;28;20507;-86
2023/03/30 09:12:50;;;;;;;1.17;1.00;;;12.20;99.90;;;;;;5095546;28;20046;-87
2023/03/30 09:15:20;;;;;;;1.05;0.95;;;12.20;99.90;;;;;;5078566;28;20487;-86
2023/03/30 09:17:47;;;;;;;;;;;12.20;99.90;;;;;;5078982;28;20064;-87
2023/03/30 09:20:21;;;;;;;1.35;1.08;;;12.10;99.90;;;;;;5096516;28;19916;-86
2023/03/30 09:22:48;;;;;;;1.13;1.00;;;11.90;99.90;;;;;;5077272;28;20036;-83
2023/03/30 09:25:22;;;;;;;1.55;1.17;;;11.70;99.90;;;;;;5078165;28;20048;-85
2023/03/30 09:28:07;;;;;;;1.25;1.10;;;11.90;99.90;;;;;;5079107;28;20044;-85
2023/03/30 09:30:41;;;;;;;0.77;0.77;;;12.00;99.90;;;;;;5095264;28;20040;-86
2023/03/30 09:33:33;;;;;;;1.25;1.08;;;12.20;99.90;;;;;;5095227;28;20044;-86
2023/03/30 09:36:18;;;;;;;0.90;0.90;;;12.40;99.90;;;;;;5094971;28;20048;-86
2023/03/30 09:38:44;;;;;;;0.80;0.80;;;12.70;99.90;;;;;;5094801;28;20051;-86
2023/03/30 09:41:21;;;;;;;1.20;1.10;;;12.70;99.90;;;;;;5077797;28;20044;-87
2023/03/30 09:43:49;;;;;;;0.93;0.90;;;12.90;99.90;;;;;;5078368;28;20039;-87
2023/03/30 09:46:16;;;;;;;0.98;0.98;;;12.80;99.90;;;;;;5129248;27;20101;-88
2023/03/30 09:48:45;;;;;;;1.20;1.10;;;12.80;99.90;;;;;;5096483;28;20040;-86
2023/03/30 09:51:26;;;;;;;1.27;1.17;;;12.80;99.90;;;;;;5096527;28;20056;-88
2023/03/30 09:54:02;;;;;;;1.02;0.93;;;12.70;99.90;;;;;;5078156;28;20051;-86
2023/03/30 09:56:34;;;;;;;1.00;0.90;;;12.90;99.90;;;;;;5095054;28;20137;-87
2023/03/30 09:59:21;;;;;;;0.82;0.80;;;13.00;99.90;;;;;;5096013;28;20044;-87
2023/03/30 10:01:47;;;;;;;0.80;0.80;;;13.00;99.90;;;;;;5079183;28;20032;-87
2023/03/30 10:04:15;;;;;;;0.70;0.70;;;13.00;99.90;;;;;;5094900;28;20054;-88
2023/03/30 10:06:48;;;;;;;0.90;0.90;;;13.10;99.90;;;;;;5095794;28;20044;-84
2023/03/30 10:09:19;;;;;;;0.90;0.90;;;13.10;99.90;;;;;;5077431;28;20454;-84
2023/03/30 10:11:48;;;;;;;0.77;0.77;;;13.10;99.90;;;;;;5094896;28;20048;-86
2023/03/30 10:14:34;;;;;;;1.00;0.80;;;13.20;99.90;;;;;;5095431;28;20036;-88
2023/03/30 10:17:01;;;;;;;0.93;0.73;;;13.20;99.90;;;;;;5094234;28;20066;-85
2023/03/30 10:19:27;;;;;;;0.80;0.80;;;13.10;99.90;;;;;;5076892;28;20037;-82
2023/03/30 10:21:58;;;;;;;0.80;0.80;;;13.00;99.90;;;;;;5076847;28;20032;-81
2023/03/30 10:24:26;;;;;;;0.70;0.70;;;13.00;99.90;;;;;;5093852;28;20072;-82
2023/03/30 10:27:10;;;;;;;0.68;0.68;;;13.10;99.90;;;;;;5093992;28;20040;-83
2023/03/30 10:29:35;;;;;;;0.80;0.80;;;13.10;99.90;;;;;;5093491;28;20040;-83
2023/03/30 10:32:10;;;;;;;0.80;0.80;;;13.10;99.90;;;;;;5095072;28;20085;-84
2023/03/30 10:34:39;;;;;;;0.80;0.80;;;13.10;99.90;;;;;;5094902;28;20494;-76
2023/03/30 10:37:09;;;;;;;0.80;0.80;;;13.10;99.90;;;;;;5127238;27;20044;-71
2023/03/30 10:39:39;;;;;;;0.60;0.60;;;13.10;99.90;;;;;;5076987;28;20081;-88
2023/03/30 10:42:07;;;;;;;0.70;0.70;;;13.10;99.90;;;;;;5094060;28;20032;-88
2023/03/30 10:44:46;;;;;;;0.60;0.60;;;13.00;99.90;;;;;;5093915;28;20038;-87
2023/03/30 10:47:23;;;;;;;0.85;0.85;;;13.00;99.90;;;;;;5093837;28;20040;-88
2023/03/30 10:50:02;;;;;;;0.68;0.68;;;13.00;99.90;;;;;;5095606;28;20077;-88
2023/03/30 10:52:30;;;;;;;0.80;0.80;;;13.00;99.90;;;;;;5077222;28;20078;-87
2023/03/30 10:55:19;;;;;;;0.95;0.95;;;13.10;99.90;;;;;;5095451;28;20044;-87
2023/03/30 10:57:56;;;;;;;1.10;1.00;;;13.20;99.90;;;;;;5093466;28;20043;-87
2023/03/30 11:00:22;;;;;;;0.88;0.88;;;13.20;99.90;;;;;;5094721;28;20075;-76
2023/03/30 11:02:56;;;;;;;0.80;0.80;;;13.40;99.90;;;;;;5093331;28;20036;-85
2023/03/30 11:05:28;;;;;;;0.77;0.77;;;13.40;99.90;;;;;;5076127;28;20054;-83
2023/03/30 11:07:58;;;;;;;1.33;0.95;;;13.50;99.90;;;;;;5093268;28;20115;-83
2023/03/30 11:10:35;;;;;;;0.80;0.80;;;13.40;99.90;;;;;;5076364;28;20040;-85
2023/03/30 11:13:09;;;;;;;0.80;0.80;;;13.40;99.90;;;;;;5094806;28;20036;-88
2023/03/30 11:15:47;;;;;;;0.80;0.80;;;13.30;99.90;;;;;;5094915;28;20040;-88
2023/03/30 11:18:19;;;;;;;0.80;0.80;;;13.40;99.90;;;;;;5077153;28;20040;-76
2023/03/30 11:20:51;;;;;;;0.75;0.75;;;13.30;99.90;;;;;;5094220;28;20396;-79
2023/03/30 11:23:27;;;;;;;0.70;0.70;;;13.40;99.90;;;;;;5075569;28;20043;-78
2023/03/30 11:26:07;;;;;;;0.70;0.70;;;13.30;99.90;;;;;;5092530;28;20090;-79
2023/03/30 11:28:41;;;;;;;0.95;0.93;;;13.30;99.90;;;;;;5092569;28;20051;-86
2023/03/30 11:31:26;;;;;;;0.70;0.70;;;13.40;99.90;;;;;;5093524;28;20569;-90
2023/03/30 11:34:05;;;;;;;1.10;1.00;;;13.40;99.90;;;;;;5093820;28;20039;-90
2023/03/30 11:36:42;;;;;;;0.82;0.82;;;13.60;99.90;;;;;;5093896;28;20085;-90
2023/03/30 11:39:15;;;;;;;0.90;0.90;;;13.60;99.90;;;;;;5093572;28;20445;-90
2023/03/30 11:41:51;;;;;;;0.95;0.95;;;13.80;99.90;;;;;;5093737;28;20078;-89
2023/03/30 11:44:17;;;;;;;0.85;0.75;;;13.80;99.90;;;;;;5076501;28;20040;-90
2023/03/30 11:47:00;;;;;;;0.95;0.80;;;13.80;99.90;;;;;;5094240;28;20039;-90
2023/03/30 11:50:17;;;;;;;0.80;0.80;;;13.90;99.90;;;;;;5076474;28;20122;-90
2023/03/30 11:52:42;;;;;;;0.90;0.90;;;14.00;99.90;;;;;;5071399;28;20480;-90
2023/03/30 11:55:17;;;;;;;0.77;0.77;;;14.10;99.90;;;;;;5093390;28;20076;-89
2023/03/30 11:57:50;;;;;;;0.80;0.80;;;13.90;99.90;;;;;;5076551;28;20060;-90
2023/03/30 12:00:37;;;;;;;0.88;0.88;;;13.90;99.90;;;;;;5093233;28;20560;-90
2023/03/30 12:03:35;;;;;;;0.70;0.70;;;14.00;99.90;;;;;;5094674;28;20071;-90
2023/03/30 12:06:10;;;;;;;0.88;0.88;;;14.10;99.90;;;;;;5094597;28;20115;-90
2023/03/30 12:08:47;;;;;;;0.93;0.90;;;14.00;99.90;;;;;;5076333;28;20040;-90
2023/03/30 12:11:36;;;;;;;0.90;0.90;;;14.30;99.90;;;;;;5127280;28;20048;-90
2023/03/30 12:14:23;;;;;;;0.60;0.60;;;14.50;99.90;;;;;;5093307;28;20036;-89
2023/03/30 12:16:53;;;;;;;1.13;0.80;;;14.70;99.90;;;;;;5093498;28;20040;-90
2023/03/30 12:19:31;;;;;;;1.08;0.90;;;15.00;99.90;;;;;;5093027;28;20071;-90
2023/03/30 12:22:25;;;;;;;0.90;0.90;;;14.70;99.90;;;;;;5094526;28;20092;-90
2023/03/30 12:25:02;;;;;;;0.82;0.82;;;14.80;99.90;;;;;;5093168;28;20040;-90
2023/03/30 12:27:29;;;;;;;0.98;0.98;;;14.90;99.90;;;;;;5094430;28;20043;-90
2023/03/30 12:30:12;;;;;;;0.90;0.90;;;15.00;99.90;;;;;;5076071;28;20048;-87
2023/03/30 12:32:55;;;;;;;0.93;0.93;;;15.00;99.90;;;;;;5093774;28;20051;-87
2023/03/30 12:35:48;;;;;;;0.85;0.85;;;14.60;99.90;;;;;;5092470;28;20483;-86
2023/03/30 12:38:16;;;;;;;0.80;0.80;;;14.70;99.90;;;;;;5091891;28;20063;-82
2023/03/30 12:40:51;;;;;;;1.17;1.08;;;15.00;99.90;;;;;;5092843;28;20036;-86
2023/03/30 12:43:30;;;;;;;0.95;0.95;;;15.20;99.90;;;;;;5075081;28;20124;-85
2023/03/30 12:46:40;;;;;;;0.93;0.90;;;15.10;99.90;;;;;;5075286;28;20044;-85
2023/03/30 12:49:25;;;;;;;0.80;0.80;;;14.70;99.90;;;;;;5104045;28;20044;-85
2023/03/30 12:52:22;;;;;;;1.10;1.00;;;14.40;99.90;;;;;;5075067;28;20077;-83
2023/03/30 12:55:00;;;;;;;1.20;1.10;;;14.20;99.90;;;;;;5074899;28;20044;-83
2023/03/30 12:57:50;;;;;;;1.10;1.00;;;14.00;99.90;;;;;;5076156;28;20113;-83
2023/03/30 13:00:43;;;;;;;1.10;1.00;;;14.40;99.90;;;;;;5096860;28;20048;-82
2023/03/30 13:03:27;;;;;;;0.98;0.82;;;14.60;99.90;;;;;;5095562;28;20087;-83
2023/03/30 13:05:54;;;;;;;1.00;0.90;;;14.60;99.90;;;;;;5078430;28;20157;-88
2023/03/30 13:08:30;;;;;;;0.80;0.80;;;14.60;99.90;;;;;;5078855;28;20384;-86
2023/03/30 13:11:17;;;;;;;0.95;0.95;;;14.60;99.90;;;;;;5095626;28;20148;-85